sensor_id;sensor_type;location;lat;lon;timestamp;temperature;humidity
46752;DHT22;32497;48.936;9.270;2023-05-10T00:02:18;13.80;93.60
46752;DHT22;32497;48.936;9.270;2023-05-10T00:07:19;13.70;93.10
46752;DHT22;32497;48.936;9.270;2023-05-10T00:12:22;13.70;93.30
46752;DHT22;32497;48.936;9.270;2023-05-10T00:17:23;13.60;93.20
46752;DHT22;32497;48.936;9.270;2023-05-10T00:22:24;13.60;93.10
46752;DHT22;32497;48.936;9.270;2023-05-10T00:27:27;13.50;93.00
46752;DHT22;32497;48.936;9.270;2023-05-10T00:32:28;13.40;92.80
46752;DHT22;32497;48.936;9.270;2023-05-10T00:37:30;13.20;92.70
46752;DHT22;32497;48.936;9.270;2023-05-10T00:42:32;13.00;92.80
46752;DHT22;32497;48.936;9.270;2023-05-10T00:47:34;12.90;92.60
46752;DHT22;32497;48.936;9.270;2023-05-10T00:52:37;12.80;92.60
46752;DHT22;32497;48.936;9.270;2023-05-10T00:57:39;12.80;92.70
46752;DHT22;32497;48.936;9.270;2023-05-10T01:02:41;12.80;92.90
46752;DHT22;32497;48.936;9.270;2023-05-10T01:07:42;12.90;93.00
46752;DHT22;32497;48.936;9.270;2023-05-10T01:13:10;12.80;92.90
46752;DHT22;32497;48.936;9.270;2023-05-10T01:18:11;12.70;92.70
46752;DHT22;32497;48.936;9.270;2023-05-10T01:23:40;12.70;93.00
46752;DHT22;32497;48.936;9.270;2023-05-10T01:29:14;12.70;93.00
46752;DHT22;32497;48.936;9.270;2023-05-10T01:34:24;12.60;93.00
46752;DHT22;32497;48.936;9.270;2023-05-10T01:39:32;12.60;93.00
46752;DHT22;32497;48.936;9.270;2023-05-10T01:44:37;12.60;93.00
46752;DHT22;32497;48.936;9.270;2023-05-10T01:49:45;12.60;93.00
46752;DHT22;32497;48.936;9.270;2023-05-10T01:54:50;12.50;92.70
46752;DHT22;32497;48.936;9.270;2023-05-10T01:59:55;12.60;92.90
46752;DHT22;32497;48.936;9.270;2023-05-10T02:04:59;12.50;92.50
46752;DHT22;32497;48.936;9.270;2023-05-10T02:10:02;12.60;92.80
46752;DHT22;32497;48.936;9.270;2023-05-10T02:15:05;12.50;92.60
46752;DHT22;32497;48.936;9.270;2023-05-10T02:20:10;12.60;92.90
46752;DHT22;32497;48.936;9.270;2023-05-10T02:25:13;12.70;92.60
46752;DHT22;32497;48.936;9.270;2023-05-10T02:30:15;12.80;92.80
46752;DHT22;32497;48.936;9.270;2023-05-10T02:35:18;12.80;92.80
46752;DHT22;32497;48.936;9.270;2023-05-10T02:40:20;12.80;92.50
46752;DHT22;32497;48.936;9.270;2023-05-10T02:45:25;12.90;92.50
46752;DHT22;32497;48.936;9.270;2023-05-10T02:50:30;12.90;92.30
46752;DHT22;32497;48.936;9.270;2023-05-10T02:55:36;12.90;92.60
46752;DHT22;32497;48.936;9.270;2023-05-10T03:00:38;13.10;92.70
46752;DHT22;32497;48.936;9.270;2023-05-10T03:05:41;13.10;92.50
46752;DHT22;32497;48.936;9.270;2023-05-10T03:11:04;13.00;92.20
46752;DHT22;32497;48.936;9.270;2023-05-10T03:16:12;13.00;91.80
46752;DHT22;32497;48.936;9.270;2023-05-10T03:21:18;13.00;92.10
46752;DHT22;32497;48.936;9.270;2023-05-10T03:26:24;12.90;92.10
46752;DHT22;32497;48.936;9.270;2023-05-10T03:31:32;12.70;91.60
46752;DHT22;32497;48.936;9.270;2023-05-10T03:36:35;12.70;91.30
46752;DHT22;32497;48.936;9.270;2023-05-10T03:41:37;12.70;92.00
46752;DHT22;32497;48.936;9.270;2023-05-10T03:46:38;12.60;91.50
46752;DHT22;32497;48.936;9.270;2023-05-10T03:51:40;12.60;91.90
46752;DHT22;32497;48.936;9.270;2023-05-10T03:56:41;12.70;92.40
46752;DHT22;32497;48.936;9.270;2023-05-10T04:01:43;12.80;92.40
46752;DHT22;32497;48.936;9.270;2023-05-10T04:06:46;12.80;92.30
46752;DHT22;32497;48.936;9.270;2023-05-10T04:11:47;12.70;92.40
46752;DHT22;32497;48.936;9.270;2023-05-10T04:16:48;12.80;92.30
46752;DHT22;32497;48.936;9.270;2023-05-10T04:21:50;12.90;92.30
46752;DHT22;32497;48.936;9.270;2023-05-10T04:26:51;13.00;92.20
46752;DHT22;32497;48.936;9.270;2023-05-10T04:31:52;13.00;91.80
46752;DHT22;32497;48.936;9.270;2023-05-10T04:36:55;12.90;92.10
46752;DHT22;32497;48.936;9.270;2023-05-10T04:41:56;13.00;92.20
46752;DHT22;32497;48.936;9.270;2023-05-10T04:46:57;12.90;92.30
46752;DHT22;32497;48.936;9.270;2023-05-10T04:51:59;12.90;92.40
46752;DHT22;32497;48.936;9.270;2023-05-10T04:57:01;13.00;92.40
46752;DHT22;32497;48.936;9.270;2023-05-10T05:02:02;12.90;91.90
46752;DHT22;32497;48.936;9.270;2023-05-10T05:07:04;12.90;91.80
46752;DHT22;32497;48.936;9.270;2023-05-10T05:12:05;13.00;91.50
46752;DHT22;32497;48.936;9.270;2023-05-10T05:17:06;13.10;91.30
46752;DHT22;32497;48.936;9.270;2023-05-10T05:22:09;13.20;91.50
46752;DHT22;32497;48.936;9.270;2023-05-10T05:27:10;13.30;91.10
46752;DHT22;32497;48.936;9.270;2023-05-10T05:32:11;13.50;90.80
46752;DHT22;32497;48.936;9.270;2023-05-10T05:37:14;13.70;89.20
46752;DHT22;32497;48.936;9.270;2023-05-10T05:42:16;13.90;89.30
46752;DHT22;32497;48.936;9.270;2023-05-10T05:47:17;14.10;89.60
46752;DHT22;32497;48.936;9.270;2023-05-10T05:52:19;14.20;89.00
46752;DHT22;32497;48.936;9.270;2023-05-10T05:57:20;14.20;88.70
46752;DHT22;32497;48.936;9.270;2023-05-10T06:02:21;14.40;88.20
46752;DHT22;32497;48.936;9.270;2023-05-10T06:07:24;14.60;88.60
46752;DHT22;32497;48.936;9.270;2023-05-10T06:12:25;14.50;87.60
46752;DHT22;32497;48.936;9.270;2023-05-10T06:17:26;14.60;88.30
46752;DHT22;32497;48.936;9.270;2023-05-10T06:22:28;14.80;88.70
46752;DHT22;32497;48.936;9.270;2023-05-10T06:27:29;14.70;86.00
46752;DHT22;32497;48.936;9.270;2023-05-10T06:32:30;14.70;87.30
46752;DHT22;32497;48.936;9.270;2023-05-10T06:37:33;14.70;87.30
46752;DHT22;32497;48.936;9.270;2023-05-10T06:42:34;14.70;86.80
46752;DHT22;32497;48.936;9.270;2023-05-10T06:47:36;14.70;87.10
46752;DHT22;32497;48.936;9.270;2023-05-10T06:52:39;14.70;86.60
46752;DHT22;32497;48.936;9.270;2023-05-10T06:57:40;14.90;86.90
46752;DHT22;32497;48.936;9.270;2023-05-10T07:02:41;15.10;85.80
46752;DHT22;32497;48.936;9.270;2023-05-10T07:07:43;15.40;85.10
46752;DHT22;32497;48.936;9.270;2023-05-10T07:12:44;15.60;84.30
46752;DHT22;32497;48.936;9.270;2023-05-10T07:17:45;15.70;84.60
46752;DHT22;32497;48.936;9.270;2023-05-10T07:22:48;16.10;83.90
46752;DHT22;32497;48.936;9.270;2023-05-10T07:27:49;16.20;82.90
46752;DHT22;32497;48.936;9.270;2023-05-10T07:32:50;15.90;81.50
46752;DHT22;32497;48.936;9.270;2023-05-10T07:37:56;15.70;83.60
46752;DHT22;32497;48.936;9.270;2023-05-10T07:42:58;15.50;83.00
46752;DHT22;32497;48.936;9.270;2023-05-10T07:47:59;15.40;81.50
46752;DHT22;32497;48.936;9.270;2023-05-10T07:53:02;15.40;82.90
46752;DHT22;32497;48.936;9.270;2023-05-10T07:58:03;15.50;81.60
46752;DHT22;32497;48.936;9.270;2023-05-10T08:03:04;15.60;81.90
46752;DHT22;32497;48.936;9.270;2023-05-10T08:08:06;15.80;82.20
46752;DHT22;32497;48.936;9.270;2023-05-10T08:13:07;15.80;78.90
46752;DHT22;32497;48.936;9.270;2023-05-10T08:18:08;15.80;80.50
46752;DHT22;32497;48.936;9.270;2023-05-10T08:23:12;15.90;79.60
46752;DHT22;32497;48.936;9.270;2023-05-10T08:28:13;16.20;78.90
46752;DHT22;32497;48.936;9.270;2023-05-10T08:33:14;16.30;74.70
46752;DHT22;32497;48.936;9.270;2023-05-10T08:38:18;16.20;74.40
46752;DHT22;32497;48.936;9.270;2023-05-10T08:43:19;16.60;76.00
46752;DHT22;32497;48.936;9.270;2023-05-10T08:48:23;16.60;73.60
46752;DHT22;32497;48.936;9.270;2023-05-10T08:53:26;17.10;76.80
46752;DHT22;32497;48.936;9.270;2023-05-10T08:58:29;17.70;72.60
46752;DHT22;32497;48.936;9.270;2023-05-10T09:03:31;17.70;68.50
46752;DHT22;32497;48.936;9.270;2023-05-10T09:08:33;18.00;71.90
46752;DHT22;32497;48.936;9.270;2023-05-10T09:13:35;18.60;67.70
46752;DHT22;32497;48.936;9.270;2023-05-10T09:18:36;18.90;67.60
46752;DHT22;32497;48.936;9.270;2023-05-10T09:23:42;19.10;65.00
46752;DHT22;32497;48.936;9.270;2023-05-10T09:28:53;19.00;66.30
46752;DHT22;32497;48.936;9.270;2023-05-10T09:33:55;17.20;71.10
46752;DHT22;32497;48.936;9.270;2023-05-10T09:38:57;15.70;77.10
46752;DHT22;32497;48.936;9.270;2023-05-10T09:43:59;15.10;79.10
46752;DHT22;32497;48.936;9.270;2023-05-10T09:49:00;14.90;80.40
46752;DHT22;32497;48.936;9.270;2023-05-10T09:54:13;15.40;81.00
46752;DHT22;32497;48.936;9.270;2023-05-10T09:59:14;16.30;79.80
46752;DHT22;32497;48.936;9.270;2023-05-10T10:04:15;17.60;70.80
46752;DHT22;32497;48.936;9.270;2023-05-10T10:09:17;18.20;66.80
46752;DHT22;32497;48.936;9.270;2023-05-10T10:14:19;19.20;66.40
46752;DHT22;32497;48.936;9.270;2023-05-10T10:19:21;19.30;65.60
46752;DHT22;32497;48.936;9.270;2023-05-10T10:24:24;18.90;65.30
46752;DHT22;32497;48.936;9.270;2023-05-10T10:29:34;18.60;65.50
46752;DHT22;32497;48.936;9.270;2023-05-10T10:34:38;18.90;65.30
46752;DHT22;32497;48.936;9.270;2023-05-10T10:39:41;19.30;62.20
46752;DHT22;32497;48.936;9.270;2023-05-10T10:44:42;20.60;61.80
46752;DHT22;32497;48.936;9.270;2023-05-10T10:49:48;20.60;58.50
46752;DHT22;32497;48.936;9.270;2023-05-10T10:54:58;19.50;61.40
46752;DHT22;32497;48.936;9.270;2023-05-10T11:00:27;19.10;62.40
46752;DHT22;32497;48.936;9.270;2023-05-10T11:05:42;19.00;61.30
46752;DHT22;32497;48.936;9.270;2023-05-10T11:10:53;19.10;62.40
46752;DHT22;32497;48.936;9.270;2023-05-10T11:15:55;17.70;63.80
46752;DHT22;32497;48.936;9.270;2023-05-10T11:20:58;16.90;67.60
46752;DHT22;32497;48.936;9.270;2023-05-10T11:26:01;17.80;66.40
46752;DHT22;32497;48.936;9.270;2023-05-10T11:31:02;18.10;62.50
46752;DHT22;32497;48.936;9.270;2023-05-10T11:36:03;18.70;61.00
46752;DHT22;32497;48.936;9.270;2023-05-10T11:41:07;18.90;61.30
46752;DHT22;32497;48.936;9.270;2023-05-10T11:46:11;18.80;58.70
46752;DHT22;32497;48.936;9.270;2023-05-10T11:51:12;19.10;60.00
46752;DHT22;32497;48.936;9.270;2023-05-10T11:56:14;19.20;62.30
46752;DHT22;32497;48.936;9.270;2023-05-10T12:01:16;19.40;59.30
46752;DHT22;32497;48.936;9.270;2023-05-10T12:06:17;18.80;58.30
46752;DHT22;32497;48.936;9.270;2023-05-10T12:11:24;18.40;60.10
46752;DHT22;32497;48.936;9.270;2023-05-10T12:16:28;18.90;60.60
46752;DHT22;32497;48.936;9.270;2023-05-10T12:21:29;19.00;57.50
46752;DHT22;32497;48.936;9.270;2023-05-10T12:26:32;19.30;56.10
46752;DHT22;32497;48.936;9.270;2023-05-10T12:31:33;19.70;56.20
46752;DHT22;32497;48.936;9.270;2023-05-10T12:36:50;19.70;56.10
46752;DHT22;32497;48.936;9.270;2023-05-10T12:41:53;19.20;56.80
46752;DHT22;32497;48.936;9.270;2023-05-10T12:46:54;18.80;56.50
46752;DHT22;32497;48.936;9.270;2023-05-10T12:51:55;18.80;58.70
46752;DHT22;32497;48.936;9.270;2023-05-10T12:56:57;18.90;58.00
46752;DHT22;32497;48.936;9.270;2023-05-10T13:01:58;19.20;57.90
46752;DHT22;32497;48.936;9.270;2023-05-10T13:06:59;18.70;54.90
46752;DHT22;32497;48.936;9.270;2023-05-10T13:12:02;18.60;55.00
46752;DHT22;32497;48.936;9.270;2023-05-10T13:17:05;18.20;56.60
46752;DHT22;32497;48.936;9.270;2023-05-10T13:22:06;18.20;56.60
46752;DHT22;32497;48.936;9.270;2023-05-10T13:27:08;18.30;57.30
46752;DHT22;32497;48.936;9.270;2023-05-10T13:32:11;18.70;55.30
46752;DHT22;32497;48.936;9.270;2023-05-10T13:37:12;19.00;55.00
46752;DHT22;32497;48.936;9.270;2023-05-10T13:42:14;19.30;54.40
46752;DHT22;32497;48.936;9.270;2023-05-10T13:47:16;19.60;50.60
46752;DHT22;32497;48.936;9.270;2023-05-10T13:52:17;19.00;53.30
46752;DHT22;32497;48.936;9.270;2023-05-10T13:57:19;18.90;53.70
46752;DHT22;32497;48.936;9.270;2023-05-10T14:02:20;18.70;54.70
46752;DHT22;32497;48.936;9.270;2023-05-10T14:07:21;18.90;56.20
46752;DHT22;32497;48.936;9.270;2023-05-10T14:12:24;18.40;56.00
46752;DHT22;32497;48.936;9.270;2023-05-10T14:17:25;18.20;57.90
46752;DHT22;32497;48.936;9.270;2023-05-10T14:22:26;18.20;57.00
46752;DHT22;32497;48.936;9.270;2023-05-10T14:27:28;18.40;59.20
46752;DHT22;32497;48.936;9.270;2023-05-10T14:32:29;18.30;56.30
46752;DHT22;32497;48.936;9.270;2023-05-10T14:37:31;18.30;54.80
46752;DHT22;32497;48.936;9.270;2023-05-10T14:42:33;18.40;57.50
46752;DHT22;32497;48.936;9.270;2023-05-10T14:47:34;18.60;58.00
46752;DHT22;32497;48.936;9.270;2023-05-10T14:52:35;19.00;57.40
46752;DHT22;32497;48.936;9.270;2023-05-10T14:57:38;19.10;54.30
46752;DHT22;32497;48.936;9.270;2023-05-10T15:02:39;19.30;54.90
46752;DHT22;32497;48.936;9.270;2023-05-10T15:07:40;19.10;52.90
46752;DHT22;32497;48.936;9.270;2023-05-10T15:12:42;19.10;53.30
46752;DHT22;32497;48.936;9.270;2023-05-10T15:17:43;19.20;53.00
46752;DHT22;32497;48.936;9.270;2023-05-10T15:22:44;19.70;54.40
46752;DHT22;32497;48.936;9.270;2023-05-10T15:27:47;19.20;52.30
46752;DHT22;32497;48.936;9.270;2023-05-10T15:32:48;19.20;53.20
46752;DHT22;32497;48.936;9.270;2023-05-10T15:37:49;19.30;53.50
46752;DHT22;32497;48.936;9.270;2023-05-10T15:42:51;19.20;54.70
46752;DHT22;32497;48.936;9.270;2023-05-10T15:47:52;19.10;54.30
46752;DHT22;32497;48.936;9.270;2023-05-10T15:52:54;19.20;54.80
46752;DHT22;32497;48.936;9.270;2023-05-10T15:57:56;19.20;54.50
46752;DHT22;32497;48.936;9.270;2023-05-10T16:03:01;19.40;53.80
46752;DHT22;32497;48.936;9.270;2023-05-10T16:08:02;19.10;52.20
46752;DHT22;32497;48.936;9.270;2023-05-10T16:13:05;19.00;53.80
46752;DHT22;32497;48.936;9.270;2023-05-10T16:18:06;18.70;52.30
46752;DHT22;32497;48.936;9.270;2023-05-10T16:23:07;18.80;56.30
46752;DHT22;32497;48.936;9.270;2023-05-10T16:28:10;18.80;54.30
46752;DHT22;32497;48.936;9.270;2023-05-10T16:33:11;18.30;52.90
46752;DHT22;32497;48.936;9.270;2023-05-10T16:38:12;18.10;57.60
46752;DHT22;32497;48.936;9.270;2023-05-10T16:43:14;18.20;58.80
46752;DHT22;32497;48.936;9.270;2023-05-10T16:48:15;18.20;57.80
46752;DHT22;32497;48.936;9.270;2023-05-10T16:53:17;18.00;57.40
46752;DHT22;32497;48.936;9.270;2023-05-10T16:58:19;17.80;57.50
46752;DHT22;32497;48.936;9.270;2023-05-10T17:03:20;17.80;57.40
46752;DHT22;32497;48.936;9.270;2023-05-10T17:08:21;17.70;59.30
46752;DHT22;32497;48.936;9.270;2023-05-10T17:13:24;17.60;58.50
46752;DHT22;32497;48.936;9.270;2023-05-10T17:18:25;17.60;59.50
46752;DHT22;32497;48.936;9.270;2023-05-10T17:23:27;17.20;57.50
46752;DHT22;32497;48.936;9.270;2023-05-10T17:28:30;17.20;60.00
46752;DHT22;32497;48.936;9.270;2023-05-10T17:33:31;17.10;61.30
46752;DHT22;32497;48.936;9.270;2023-05-10T17:38:32;17.00;60.00
46752;DHT22;32497;48.936;9.270;2023-05-10T17:43:34;16.90;63.00
46752;DHT22;32497;48.936;9.270;2023-05-10T17:48:35;16.70;62.70
46752;DHT22;32497;48.936;9.270;2023-05-10T17:53:37;16.60;63.30
46752;DHT22;32497;48.936;9.270;2023-05-10T17:58:40;16.40;63.40
46752;DHT22;32497;48.936;9.270;2023-05-10T18:03:41;16.20;65.40
46752;DHT22;32497;48.936;9.270;2023-05-10T18:08:43;16.10;64.20
46752;DHT22;32497;48.936;9.270;2023-05-10T18:13:46;15.90;65.40
46752;DHT22;32497;48.936;9.270;2023-05-10T18:18:47;15.80;64.50
46752;DHT22;32497;48.936;9.270;2023-05-10T18:23:48;15.60;63.50
46752;DHT22;32497;48.936;9.270;2023-05-10T18:28:50;15.30;64.40
46752;DHT22;32497;48.936;9.270;2023-05-10T18:33:51;15.20;64.70
46752;DHT22;32497;48.936;9.270;2023-05-10T18:38:53;15.00;66.40
46752;DHT22;32497;48.936;9.270;2023-05-10T18:43:55;14.80;66.70
46752;DHT22;32497;48.936;9.270;2023-05-10T18:49:08;14.60;67.00
46752;DHT22;32497;48.936;9.270;2023-05-10T18:54:09;14.50;68.40
46752;DHT22;32497;48.936;9.270;2023-05-10T18:59:12;14.30;70.30
46752;DHT22;32497;48.936;9.270;2023-05-10T19:04:13;14.10;69.80
46752;DHT22;32497;48.936;9.270;2023-05-10T19:09:14;14.00;71.10
46752;DHT22;32497;48.936;9.270;2023-05-10T19:14:16;13.90;70.80
46752;DHT22;32497;48.936;9.270;2023-05-10T19:19:17;13.70;70.50
46752;DHT22;32497;48.936;9.270;2023-05-10T19:24:19;13.70;69.70
46752;DHT22;32497;48.936;9.270;2023-05-10T19:29:21;13.70;70.70
46752;DHT22;32497;48.936;9.270;2023-05-10T19:34:22;13.60;70.10
46752;DHT22;32497;48.936;9.270;2023-05-10T19:39:23;13.50;71.00
46752;DHT22;32497;48.936;9.270;2023-05-10T19:44:26;13.50;72.70
46752;DHT22;32497;48.936;9.270;2023-05-10T19:49:27;13.40;73.80
46752;DHT22;32497;48.936;9.270;2023-05-10T19:54:28;13.30;73.80
46752;DHT22;32497;48.936;9.270;2023-05-10T19:59:30;13.20;73.10
46752;DHT22;32497;48.936;9.270;2023-05-10T20:04:32;13.20;71.40
46752;DHT22;32497;48.936;9.270;2023-05-10T20:09:33;13.30;72.10
46752;DHT22;32497;48.936;9.270;2023-05-10T20:14:35;13.20;73.30
46752;DHT22;32497;48.936;9.270;2023-05-10T20:19:36;13.10;73.30
46752;DHT22;32497;48.936;9.270;2023-05-10T20:24:37;13.10;73.90
46752;DHT22;32497;48.936;9.270;2023-05-10T20:29:40;13.10;73.10
46752;DHT22;32497;48.936;9.270;2023-05-10T20:34:41;13.00;74.00
46752;DHT22;32497;48.936;9.270;2023-05-10T20:39:42;12.90;75.70
46752;DHT22;32497;48.936;9.270;2023-05-10T20:44:45;12.80;76.30
46752;DHT22;32497;48.936;9.270;2023-05-10T20:49:46;12.70;76.60
46752;DHT22;32497;48.936;9.270;2023-05-10T20:54:47;12.70;77.10
46752;DHT22;32497;48.936;9.270;2023-05-10T20:59:49;12.70;77.80
46752;DHT22;32497;48.936;9.270;2023-05-10T21:04:50;12.70;77.70
46752;DHT22;32497;48.936;9.270;2023-05-10T21:09:52;12.80;77.90
46752;DHT22;32497;48.936;9.270;2023-05-10T21:14:54;12.80;78.10
46752;DHT22;32497;48.936;9.270;2023-05-10T21:19:55;12.80;78.40
46752;DHT22;32497;48.936;9.270;2023-05-10T21:24:56;12.90;77.80
46752;DHT22;32497;48.936;9.270;2023-05-10T21:29:59;12.90;77.50
46752;DHT22;32497;48.936;9.270;2023-05-10T21:35:00;13.00;77.10
46752;DHT22;32497;48.936;9.270;2023-05-10T21:40:02;13.00;76.50
46752;DHT22;32497;48.936;9.270;2023-05-10T21:45:05;13.00;76.10
46752;DHT22;32497;48.936;9.270;2023-05-10T21:50:07;13.00;76.20
46752;DHT22;32497;48.936;9.270;2023-05-10T21:55:08;12.90;76.60
46752;DHT22;32497;48.936;9.270;2023-05-10T22:00:12;12.80;77.00
46752;DHT22;32497;48.936;9.270;2023-05-10T22:05:13;12.70;77.40
46752;DHT22;32497;48.936;9.270;2023-05-10T22:10:15;12.60;77.60
46752;DHT22;32497;48.936;9.270;2023-05-10T22:15:17;12.60;77.60
46752;DHT22;32497;48.936;9.270;2023-05-10T22:20:19;12.40;78.40
46752;DHT22;32497;48.936;9.270;2023-05-10T22:25:20;12.40;78.80
46752;DHT22;32497;48.936;9.270;2023-05-10T22:30:22;12.20;79.50
46752;DHT22;32497;48.936;9.270;2023-05-10T22:35:23;12.10;79.90
46752;DHT22;32497;48.936;9.270;2023-05-10T22:40:25;12.00;80.10
46752;DHT22;32497;48.936;9.270;2023-05-10T22:45:27;12.00;79.80
46752;DHT22;32497;48.936;9.270;2023-05-10T22:50:29;12.00;80.10
46752;DHT22;32497;48.936;9.270;2023-05-10T22:55:30;11.90;79.80
46752;DHT22;32497;48.936;9.270;2023-05-10T23:00:33;11.90;80.30
46752;DHT22;32497;48.936;9.270;2023-05-10T23:05:34;11.90;81.00
46752;DHT22;32497;48.936;9.270;2023-05-10T23:10:35;11.70;81.30
46752;DHT22;32497;48.936;9.270;2023-05-10T23:15:37;11.80;81.60
46752;DHT22;32497;48.936;9.270;2023-05-10T23:20:40;11.80;81.90
46752;DHT22;32497;48.936;9.270;2023-05-10T23:25:41;11.70;81.60
46752;DHT22;32497;48.936;9.270;2023-05-10T23:30:44;11.80;81.40
46752;DHT22;32497;48.936;9.270;2023-05-10T23:35:45;11.70;81.50
46752;DHT22;32497;48.936;9.270;2023-05-10T23:40:47;11.70;80.90
46752;DHT22;32497;48.936;9.270;2023-05-10T23:45:53;11.60;80.70
46752;DHT22;32497;48.936;9.270;2023-05-10T23:50:54;11.60;80.00
46752;DHT22;32497;48.936;9.270;2023-05-10T23:55:55;11.60;80.60
